Chopin — ZDFE4 — position and weather

sailwx.info

Track history (hours):
 
Tides and Currents Weather Stations Pressure Air Temp Water Temp Dewpoint Dewpoint Depression Visibility Wind Speed Wind Dir Waves Ship Positions

Chopin

Last reported at 2014-Nov-27 07:33 UTC. Time now 2014-Nov-27 08:13 UTC.
Position N 51°21' E 003°48'.

Length 104 m; draft 6.3 m.

Type: Cargo ship. MMSI: 236099000.

Date/timePositionNaut miles runAvg speedWind from/ knotsBaromVisibWave heightAir tempDewpointWater temp
2014-Nov-27 07:33N 51°21' E 003°48'8 7.6
2014-Nov-27 06:33N 51°25' E 003°37'9 9.1
2014-Nov-27 05:33N 51°24' E 003°23'1110.9
2014-Nov-27 04:33N 51°24' E 003°05'1211.6
2014-Nov-27 03:33N 51°23' E 002°47'9 8.7
2014-Nov-27 02:31N 51°22' E 002°33'1111.1
2014-Nov-27 01:33N 51°18' E 002°17'1010.2
2014-Nov-27 00:33N 51°13' E 002°03'9 8.6
2014-Nov-26 23:33N 51°08' E 001°51'8 7.7
2014-Nov-26 22:34N 51°03' E 001°42'7 7.4
2014-Nov-26 21:33N 50°58' E 001°34'168 8.8
2014-Nov-26 02:31N 50°13' W 002°41'7 7.6
2014-Nov-26 01:33N 50°12' W 002°53'8 8.4
2014-Nov-26 00:34N 50°12' W 003°06'9 9.0
2014-Nov-25 23:33N 50°11' W 003°20'10 9.0
2014-Nov-25 22:30N 50°11' W 003°35'170 8.1
2014-Nov-25 01:34N 51°23' W 007°39'9 9.4
2014-Nov-25 00:33N 51°29' W 007°49'9 9.3
2014-Nov-24 23:34N 51°36' W 007°60'10 9.9
2014-Nov-24 22:33N 51°43' W 008°11'9 8.6
2014-Nov-24 21:33N 51°51' W 008°16'6 6.3
2014-Nov-24 20:33N 51°54' W 008°25'0 0.0
2014-Nov-24 19:34N 51°54' W 008°25'0 0.0
2014-Nov-24 18:33N 51°54' W 008°25'0 0.0
2014-Nov-24 17:33N 51°54' W 008°25'0 0.0
2014-Nov-24 16:33N 51°54' W 008°25'0 0.0
2014-Nov-24 15:34N 51°54' W 008°25'0 0.0
2014-Nov-24 14:33N 51°54' W 008°25'0 0.0
2014-Nov-24 13:33N 51°54' W 008°25'0 0.0
2014-Nov-24 12:34N 51°54' W 008°25'0 0.0
2014-Nov-24 11:34N 51°54' W 008°25'0 0.0
2014-Nov-24 10:34N 51°54' W 008°25'0 0.0
2014-Nov-24 09:33N 51°54' W 008°25'0 0.0
2014-Nov-24 08:34N 51°54' W 008°25'0 0.0
2014-Nov-24 07:33N 51°54' W 008°25'0 0.0
2014-Nov-24 06:34N 51°54' W 008°25'0 0.0
2014-Nov-24 05:33N 51°54' W 008°25'0 0.0
2014-Nov-24 04:34N 51°54' W 008°25'0 0.0
2014-Nov-24 03:33N 51°54' W 008°25'0 0.0
2014-Nov-24 02:34N 51°54' W 008°25'0 0.0
2014-Nov-24 01:34N 51°54' W 008°25'0 0.0
2014-Nov-24 00:34N 51°54' W 008°25'0 0.0
2014-Nov-23 23:34N 51°54' W 008°25'0 0.0
2014-Nov-23 22:33N 51°54' W 008°25'0 0.0
2014-Nov-23 21:33N 51°54' W 008°25'0 0.0
2014-Nov-23 20:33N 51°54' W 008°25'0 0.0
2014-Nov-23 19:34N 51°54' W 008°25'0 0.4
2014-Nov-23 18:34N 51°54' W 008°25'6 6.4
2014-Nov-23 17:34N 51°51' W 008°16'9 9.3
2014-Nov-23 16:33N 51°42' W 008°12'1111.0
2014-Nov-23 15:33N 51°32' W 008°04'1110.9
2014-Nov-23 14:33N 51°22' W 007°56'1211.0
2014-Nov-23 13:31N 51°11' W 007°51'24910.0
2014-Nov-22 12:33N 47°20' W 005°25'1511.8
2014-Nov-22 11:15N 47°06' W 005°17'21011.2
2014-Nov-21 16:33N 43°53' W 003°21'1110.8
2014-Nov-21 15:33N 43°43' W 003°15'9 8.9
2014-Nov-21 14:33N 43°34' W 003°11'10 9.6
2014-Nov-21 13:34N 43°25' W 003°06'6 5.4
2014-Nov-21 12:31N 43°21' W 003°02'0 0.0
2014-Nov-21 11:31N 43°21' W 003°02'0 0.0
2014-Nov-21 10:31N 43°21' W 003°02'0 0.0
2014-Nov-21 09:31N 43°21' W 003°02'0 0.0
2014-Nov-21 08:31N 43°21' W 003°02'0 0.0
2014-Nov-21 07:31N 43°21' W 003°02'0 0.0
2014-Nov-21 06:31N 43°21' W 003°02'0 0.0
2014-Nov-21 05:31N 43°21' W 003°02'0 0.0
2014-Nov-21 04:31N 43°21' W 003°02'0 0.0
2014-Nov-21 03:31N 43°21' W 003°02'0 0.0
2014-Nov-21 02:31N 43°21' W 003°02'0 0.0
2014-Nov-21 01:25N 43°21' W 003°02'0 0.0
2014-Nov-21 00:13N 43°21' W 003°02'0 0.0
2014-Nov-20 23:31N 43°21' W 003°02'0 0.0
2014-Nov-20 22:34N 43°21' W 003°02'0 0.0
2014-Nov-20 21:33N 43°21' W 003°02'0 0.0
2014-Nov-20 20:33N 43°21' W 003°02'0 0.0
2014-Nov-20 19:33N 43°21' W 003°02'0 0.0
2014-Nov-20 18:33N 43°21' W 003°02'  
Track history (hours):
 
Tides and Currents Weather Stations Pressure Air Temp Water Temp Dewpoint Dewpoint Depression Visibility Wind Speed Wind Dir Waves Ship Positions

Chopin

Last reported at 2014-Nov-27 07:33 UTC. Time now 2014-Nov-27 08:13 UTC.
Position N 51°21' E 003°48'.

Length 104 m; draft 6.3 m.

Type: Cargo ship. MMSI: 236099000.

Date/timePositionNaut miles runAvg speedWind from/ knotsBaromVisibWave heightAir tempDewpointWater temp
2014-Nov-27 07:33N 51°21' E 003°48'8 7.6
2014-Nov-27 06:33N 51°25' E 003°37'9 9.1
2014-Nov-27 05:33N 51°24' E 003°23'1110.9
2014-Nov-27 04:33N 51°24' E 003°05'1211.6
2014-Nov-27 03:33N 51°23' E 002°47'9 8.7
2014-Nov-27 02:31N 51°22' E 002°33'1111.1
2014-Nov-27 01:33N 51°18' E 002°17'1010.2
2014-Nov-27 00:33N 51°13' E 002°03'9 8.6
2014-Nov-26 23:33N 51°08' E 001°51'8 7.7
2014-Nov-26 22:34N 51°03' E 001°42'7 7.4
2014-Nov-26 21:33N 50°58' E 001°34'168 8.8
2014-Nov-26 02:31N 50°13' W 002°41'7 7.6
2014-Nov-26 01:33N 50°12' W 002°53'8 8.4
2014-Nov-26 00:34N 50°12' W 003°06'9 9.0
2014-Nov-25 23:33N 50°11' W 003°20'10 9.0
2014-Nov-25 22:30N 50°11' W 003°35'170 8.1
2014-Nov-25 01:34N 51°23' W 007°39'9 9.4
2014-Nov-25 00:33N 51°29' W 007°49'9 9.3
2014-Nov-24 23:34N 51°36' W 007°60'10 9.9
2014-Nov-24 22:33N 51°43' W 008°11'9 8.6
2014-Nov-24 21:33N 51°51' W 008°16'6 6.3
2014-Nov-24 20:33N 51°54' W 008°25'0 0.0
2014-Nov-24 19:34N 51°54' W 008°25'0 0.0
2014-Nov-24 18:33N 51°54' W 008°25'0 0.0
2014-Nov-24 17:33N 51°54' W 008°25'0 0.0
2014-Nov-24 16:33N 51°54' W 008°25'0 0.0
2014-Nov-24 15:34N 51°54' W 008°25'0 0.0
2014-Nov-24 14:33N 51°54' W 008°25'0 0.0
2014-Nov-24 13:33N 51°54' W 008°25'0 0.0
2014-Nov-24 12:34N 51°54' W 008°25'0 0.0
2014-Nov-24 11:34N 51°54' W 008°25'0 0.0
2014-Nov-24 10:34N 51°54' W 008°25'0 0.0
2014-Nov-24 09:33N 51°54' W 008°25'0 0.0
2014-Nov-24 08:34N 51°54' W 008°25'0 0.0
2014-Nov-24 07:33N 51°54' W 008°25'0 0.0
2014-Nov-24 06:34N 51°54' W 008°25'0 0.0
2014-Nov-24 05:33N 51°54' W 008°25'0 0.0
2014-Nov-24 04:34N 51°54' W 008°25'0 0.0
2014-Nov-24 03:33N 51°54' W 008°25'0 0.0
2014-Nov-24 02:34N 51°54' W 008°25'0 0.0
2014-Nov-24 01:34N 51°54' W 008°25'0 0.0
2014-Nov-24 00:34N 51°54' W 008°25'0 0.0
2014-Nov-23 23:34N 51°54' W 008°25'0 0.0
2014-Nov-23 22:33N 51°54' W 008°25'0 0.0
2014-Nov-23 21:33N 51°54' W 008°25'0 0.0
2014-Nov-23 20:33N 51°54' W 008°25'0 0.0
2014-Nov-23 19:34N 51°54' W 008°25'0 0.4
2014-Nov-23 18:34N 51°54' W 008°25'6 6.4
2014-Nov-23 17:34N 51°51' W 008°16'9 9.3
2014-Nov-23 16:33N 51°42' W 008°12'1111.0
2014-Nov-23 15:33N 51°32' W 008°04'1110.9
2014-Nov-23 14:33N 51°22' W 007°56'1211.0
2014-Nov-23 13:31N 51°11' W 007°51'24910.0
2014-Nov-22 12:33N 47°20' W 005°25'1511.8
2014-Nov-22 11:15N 47°06' W 005°17'21011.2
2014-Nov-21 16:33N 43°53' W 003°21'1110.8
2014-Nov-21 15:33N 43°43' W 003°15'9 8.9
2014-Nov-21 14:33N 43°34' W 003°11'10 9.6
2014-Nov-21 13:34N 43°25' W 003°06'6 5.4
2014-Nov-21 12:31N 43°21' W 003°02'0 0.0
2014-Nov-21 11:31N 43°21' W 003°02'0 0.0
2014-Nov-21 10:31N 43°21' W 003°02'0 0.0
2014-Nov-21 09:31N 43°21' W 003°02'0 0.0
2014-Nov-21 08:31N 43°21' W 003°02'0 0.0
2014-Nov-21 07:31N 43°21' W 003°02'0 0.0
2014-Nov-21 06:31N 43°21' W 003°02'0 0.0
2014-Nov-21 05:31N 43°21' W 003°02'0 0.0
2014-Nov-21 04:31N 43°21' W 003°02'0 0.0
2014-Nov-21 03:31N 43°21' W 003°02'0 0.0
2014-Nov-21 02:31N 43°21' W 003°02'0 0.0
2014-Nov-21 01:25N 43°21' W 003°02'0 0.0
2014-Nov-21 00:13N 43°21' W 003°02'0 0.0
2014-Nov-20 23:31N 43°21' W 003°02'0 0.0
2014-Nov-20 22:34N 43°21' W 003°02'0 0.0
2014-Nov-20 21:33N 43°21' W 003°02'0 0.0
2014-Nov-20 20:33N 43°21' W 003°02'0 0.0
2014-Nov-20 19:33N 43°21' W 003°02'0 0.0
2014-Nov-20 18:33N 43°21' W 003°02'  

Dump ship's entire track history